Time;durP1;ratioP1;P1;durP2;ratioP2;P2;SDS_P1;SDS_P2;PMS_P1;PMS_P2;Temp;Humidity;BMP_temperature;BMP_pressure;BME280_temperature;BME280_humidity;BME280_pressure;Samples;Min_cycle;Max_cycle;Signal;HPM_P1;HPM_P2
2023/06/11 01:04:17;;;;;;;0.70;0.68;;;25.00;64.30;;;;;;7254416;23;20051;-82
2023/06/11 01:07:22;;;;;;;0.80;0.80;;;24.90;65.30;;;;;;6128975;29;20119;-82
2023/06/11 01:10:26;;;;;;;0.70;0.70;;;23.20;64.30;;;;;;6168324;23;20620;-53
2023/06/11 01:13:30;;;;;;;0.80;0.60;;;25.10;65.30;;;;;;6102746;29;20044;-51
2023/06/11 01:16:42;;;;;;;0.80;0.80;;;25.10;65.30;;;;;;6102927;29;20044;-52
2023/06/11 01:20:10;;;;;;;0.77;0.70;;;25.00;65.00;;;;;;6102851;29;20036;-52
2023/06/11 01:23:31;;;;;;;0.60;0.60;;;25.00;65.00;;;;;;6101780;29;20045;-53
2023/06/11 01:26:43;;;;;;;0.60;0.50;;;24.70;64.80;;;;;;6088767;29;20048;-52
2023/06/11 01:29:49;;;;;;;1.13;0.70;;;24.90;64.90;;;;;;6101989;29;20608;-52
2023/06/11 01:32:52;;;;;;;0.88;0.60;;;24.60;64.80;;;;;;6102367;29;20050;-52
2023/06/11 01:35:58;;;;;;;1.00;0.73;;;25.00;65.00;;;;;;6101411;29;20044;-51
2023/06/11 01:39:05;;;;;;;0.80;0.80;;;24.50;64.80;;;;;;6102310;29;20032;-53
2023/06/11 01:42:15;;;;;;;0.80;0.70;;;24.60;65.00;;;;;;6099904;29;20047;-49
2023/06/11 01:45:18;;;;;;;0.60;0.60;;;24.90;65.20;;;;;;6102702;29;20042;-53
2023/06/11 01:48:20;;;;;;;0.88;0.88;;;24.90;65.00;;;;;;6102584;29;20040;-51
2023/06/11 01:51:21;;;;;;;0.70;0.70;;;24.70;65.00;;;;;;6102586;29;20036;-52
2023/06/11 01:54:23;;;;;;;0.82;0.82;;;24.80;65.30;;;;;;6102073;29;20052;-50
2023/06/11 01:57:25;;;;;;;0.77;0.68;;;24.90;65.20;;;;;;6102281;29;20040;-53
2023/06/11 02:00:27;;;;;;;0.75;0.70;;;24.90;65.40;;;;;;6102292;29;20043;-53
2023/06/11 02:03:29;;;;;;;0.68;0.63;;;25.00;65.30;;;;;;6101957;29;20116;-49
2023/06/11 02:06:31;;;;;;;0.80;0.80;;;24.50;65.10;;;;;;6101873;29;20044;-53
2023/06/11 02:09:32;;;;;;;0.93;0.85;;;24.90;65.40;;;;;;6101953;29;20062;-49
2023/06/11 02:12:35;;;;;;;0.55;0.55;;;24.60;65.20;;;;;;6101303;29;20040;-53
2023/06/11 02:15:40;;;;;;;0.70;0.50;;;24.90;65.30;;;;;;6103274;29;20567;-53
2023/06/11 02:18:41;;;;;;;0.63;0.63;;;24.80;65.20;;;;;;6100126;29;20110;-52
2023/06/11 02:21:43;;;;;;;0.60;0.60;;;24.80;65.20;;;;;;6100160;29;20044;-49
2023/06/11 02:24:45;;;;;;;0.65;0.60;;;24.90;65.20;;;;;;6101294;29;20413;-50
2023/06/11 02:27:48;;;;;;;0.80;0.70;;;24.70;65.10;;;;;;6101335;29;20036;-50
2023/06/11 02:30:50;;;;;;;0.80;0.80;;;24.70;65.10;;;;;;6100664;29;20229;-52
2023/06/11 02:33:53;;;;;;;0.88;0.80;;;24.80;65.00;;;;;;6100956;29;20047;-53
2023/06/11 02:36:55;;;;;;;0.80;0.80;;;24.70;65.00;;;;;;6101257;29;20143;-49
2023/06/11 02:39:57;;;;;;;0.80;0.70;;;24.70;64.90;;;;;;6100484;29;20275;-51
2023/06/11 02:43:02;;;;;;;0.70;0.70;;;24.70;65.00;;;;;;6100472;29;20500;-53
2023/06/11 02:46:04;;;;;;;0.77;0.70;;;24.40;64.80;;;;;;6101243;29;20048;-50
2023/06/11 02:49:06;;;;;;;0.77;0.70;;;24.40;64.90;;;;;;6101653;29;20043;-53
2023/06/11 02:52:11;;;;;;;1.00;0.82;;;24.70;64.90;;;;;;6099259;29;20036;-51
2023/06/11 02:55:12;;;;;;;0.80;0.60;;;24.70;65.10;;;;;;6101289;29;20100;-51
2023/06/11 02:58:14;;;;;;;0.55;0.55;;;24.60;64.90;;;;;;6100945;29;20048;-52
2023/06/11 03:01:16;;;;;;;0.80;0.80;;;24.70;65.00;;;;;;6100932;29;20416;-53
2023/06/11 03:04:18;;;;;;;0.73;0.73;;;24.70;64.90;;;;;;6100582;29;20456;-53
2023/06/11 03:07:21;;;;;;;0.70;0.70;;;24.90;65.20;;;;;;6100932;29;20411;-53
2023/06/11 03:10:23;;;;;;;0.80;0.77;;;24.50;64.70;;;;;;6100641;29;20047;-53
2023/06/11 03:13:26;;;;;;;0.80;0.77;;;24.40;64.70;;;;;;6100155;29;20044;-50
2023/06/11 03:16:29;;;;;;;0.55;0.55;;;24.60;64.70;;;;;;6100803;29;20119;-53
2023/06/11 03:19:31;;;;;;;0.70;0.70;;;24.70;64.90;;;;;;6100771;29;20048;-52
2023/06/11 03:22:34;;;;;;;0.70;0.68;;;24.70;64.80;;;;;;6100022;29;20407;-52
2023/06/11 03:25:35;;;;;;;0.70;0.60;;;24.70;65.00;;;;;;6100577;29;20044;-51
2023/06/11 03:28:37;;;;;;;0.80;0.80;;;24.30;64.70;;;;;;6100649;29;20393;-51
2023/06/11 03:31:40;;;;;;;0.68;0.60;;;24.70;65.00;;;;;;6099042;29;20040;-52
2023/06/11 03:34:43;;;;;;;0.70;0.70;;;24.20;64.70;;;;;;6100486;29;20124;-50
2023/06/11 03:37:44;;;;;;;0.50;0.50;;;24.20;64.70;;;;;;6100634;29;20042;-53
2023/06/11 03:40:51;;;;;;;0.73;0.60;;;24.70;65.00;;;;;;6100246;29;20047;-52
2023/06/11 03:43:56;;;;;;;0.80;0.80;;;24.60;65.10;;;;;;6099768;29;20043;-53
2023/06/11 03:46:59;;;;;;;0.63;0.63;;;24.60;65.10;;;;;;6100202;29;20037;-53
2023/06/11 03:50:01;;;;;;;0.88;0.80;;;24.70;65.20;;;;;;6100756;29;20044;-51
2023/06/11 03:53:03;;;;;;;0.55;0.55;;;24.30;65.00;;;;;;6099543;29;20068;-53
2023/06/11 03:56:05;;;;;;;0.57;0.50;;;24.60;65.20;;;;;;6099060;29;20265;-53
2023/06/11 03:59:06;;;;;;;0.70;0.70;;;24.20;64.90;;;;;;6099721;29;20354;-52
2023/06/11 04:02:08;;;;;;;0.82;0.70;;;24.40;65.00;;;;;;6099470;29;20111;-51
2023/06/11 04:05:10;;;;;;;0.88;0.80;;;24.60;65.00;;;;;;6100170;29;20468;-53
2023/06/11 04:08:12;;;;;;;0.73;0.68;;;24.70;65.30;;;;;;6100343;29;20048;-52
2023/06/11 04:11:16;;;;;;;1.05;0.60;;;24.70;65.10;;;;;;6100048;29;20039;-53
2023/06/11 04:14:17;;;;;;;0.55;0.50;;;24.40;65.00;;;;;;6099556;29;20119;-53
2023/06/11 04:17:20;;;;;;;1.25;0.68;;;24.40;65.00;;;;;;6099859;29;20112;-52
2023/06/11 04:20:22;;;;;;;0.60;0.60;;;24.50;65.00;;;;;;6099897;29;20036;-53
2023/06/11 04:23:25;;;;;;;0.88;0.77;;;24.10;64.80;;;;;;6099125;29;20464;-52
2023/06/11 04:26:28;;;;;;;0.55;0.50;;;24.60;65.20;;;;;;6099910;29;20048;-53
2023/06/11 04:29:30;;;;;;;0.73;0.73;;;24.00;64.70;;;;;;6099902;29;20136;-54
2023/06/11 04:32:36;;;;;;;0.65;0.52;;;24.40;65.10;;;;;;6099412;29;20040;-50
2023/06/11 04:35:40;;;;;;;0.77;0.70;;;24.10;64.70;;;;;;6099689;29;20542;-53
2023/06/11 04:38:44;;;;;;;0.77;0.70;;;24.30;65.00;;;;;;6099915;29;20044;-52
2023/06/11 04:41:51;;;;;;;0.63;0.50;;;24.50;64.90;;;;;;6100223;29;20036;-52
2023/06/11 04:44:56;;;;;;;0.50;0.50;;;24.50;65.10;;;;;;6103967;29;20060;-50
2023/06/11 04:48:03;;;;;;;0.73;0.73;;;24.20;64.90;;;;;;6103720;29;20044;-50
2023/06/11 04:51:07;;;;;;;0.50;0.50;;;24.50;65.10;;;;;;6103669;29;20056;-52
2023/06/11 04:54:17;;;;;;;0.50;0.50;;;24.50;65.10;;;;;;6103457;29;20040;-52
2023/06/11 04:57:23;;;;;;;0.63;0.60;;;24.40;65.10;;;;;;6103429;29;20036;-50
2023/06/11 05:00:26;;;;;;;0.57;0.52;;;24.60;65.10;;;;;;6103399;29;20044;-53
2023/06/11 05:03:36;;;;;;;0.75;0.52;;;24.10;64.80;;;;;;6102401;29;20040;-52
2023/06/11 05:06:38;;;;;;;0.50;0.50;;;24.10;64.70;;;;;;6101832;29;20043;-53
2023/06/11 05:09:41;;;;;;;0.90;0.60;;;24.00;64.90;;;;;;6102558;29;20111;-53
2023/06/11 05:12:47;;;;;;;0.68;0.68;;;24.50;64.70;;;;;;6102140;29;20040;-51
2023/06/11 05:15:49;;;;;;;0.40;0.40;;;24.50;65.10;;;;;;6102772;29;20040;-52
2023/06/11 05:18:53;;;;;;;0.45;0.45;;;24.50;65.10;;;;;;6102857;29;20044;-52
2023/06/11 05:21:55;;;;;;;0.55;0.55;;;24.10;64.80;;;;;;6102716;29;20067;-51
2023/06/11 05:24:59;;;;;;;0.50;0.47;;;24.40;65.00;;;;;;6103167;29;20036;-52
2023/06/11 05:28:02;;;;;;;0.60;0.57;;;24.50;65.00;;;;;;6103533;29;20051;-53
2023/06/11 05:31:11;;;;;;;1.08;0.50;;;24.30;64.70;;;;;;6101853;29;20555;-53
2023/06/11 05:34:14;;;;;;;0.50;0.40;;;24.10;64.70;;;;;;6102649;29;20119;-52
2023/06/11 05:37:19;;;;;;;0.70;0.65;;;24.10;64.60;;;;;;6102754;29;20535;-53
2023/06/11 05:40:21;;;;;;;0.57;0.57;;;24.50;64.90;;;;;;6101708;29;20548;-54
2023/06/11 05:43:26;;;;;;;0.60;0.60;;;24.50;64.70;;;;;;6102410;29;20048;-51
2023/06/11 05:46:28;;;;;;;0.50;0.50;;;24.10;64.80;;;;;;6102452;29;20460;-52
2023/06/11 05:49:31;;;;;;;0.52;0.52;;;24.50;65.00;;;;;;6102545;29;20503;-53
2023/06/11 05:52:33;;;;;;;0.50;0.47;;;24.10;64.70;;;;;;6102121;29;20051;-52
2023/06/11 05:55:37;;;;;;;0.60;0.60;;;24.50;64.80;;;;;;6100966;29;20496;-51
2023/06/11 05:58:40;;;;;;;0.40;0.40;;;24.40;64.80;;;;;;6102270;29;20131;-54
2023/06/11 06:01:45;;;;;;;0.40;0.40;;;24.50;64.90;;;;;;6101247;29;20040;-53
2023/06/11 06:04:49;;;;;;;0.52;0.40;;;24.40;64.80;;;;;;6101344;29;20040;-51
2023/06/11 06:07:51;;;;;;;0.50;0.40;;;24.30;64.70;;;;;;6101632;29;20056;-51
2023/06/11 06:10:54;;;;;;;0.40;0.40;;;24.40;64.90;;;;;;6101381;29;20040;-53
2023/06/11 06:13:56;;;;;;;0.40;0.40;;;24.30;64.60;;;;;;6100747;29;20048;-50
2023/06/11 06:16:58;;;;;;;0.70;0.45;;;24.40;64.90;;;;;;6100763;29;20136;-50
2023/06/11 06:20:08;;;;;;;0.93;0.55;;;24.20;64.70;;;;;;6101136;29;20500;-53
2023/06/11 06:23:11;;;;;;;0.50;0.50;;;24.10;64.50;;;;;;6100544;29;20040;-51
2023/06/11 06:26:15;;;;;;;0.47;0.38;;;24.50;64.50;;;;;;6083144;29;20571;-53
2023/06/11 06:29:17;;;;;;;0.60;0.55;;;24.40;64.70;;;;;;6100751;29;20080;-52
2023/06/11 06:32:19;;;;;;;0.40;0.40;;;24.30;64.60;;;;;;6100197;29;20071;-53
2023/06/11 06:35:21;;;;;;;0.60;0.50;;;24.30;64.70;;;;;;6100776;29;20046;-53
2023/06/11 06:38:23;;;;;;;0.47;0.47;;;24.10;64.40;;;;;;6100726;29;20044;-52
2023/06/11 06:41:26;;;;;;;0.57;0.50;;;24.10;64.50;;;;;;6100693;29;20056;-52
2023/06/11 06:44:33;;;;;;;0.50;0.40;;;24.50;64.30;;;;;;6100153;29;20530;-49
2023/06/11 06:47:35;;;;;;;0.50;0.50;;;24.50;64.80;;;;;;6100349;29;20055;-53
2023/06/11 06:50:38;;;;;;;0.43;0.43;;;24.40;65.20;;;;;;6100294;29;20416;-53
2023/06/11 06:53:40;;;;;;;0.38;0.38;;;24.20;64.40;;;;;;6099809;29;20032;-53
2023/06/11 06:56:41;;;;;;;0.30;0.30;;;24.50;64.50;;;;;;6100169;29;20041;-53
2023/06/11 06:59:43;;;;;;;0.40;0.40;;;24.50;64.70;;;;;;6099734;29;20104;-53
2023/06/11 07:02:51;;;;;;;0.40;0.40;;;24.10;64.20;;;;;;6100065;29;20392;-53
2023/06/11 07:05:53;;;;;;;0.47;0.40;;;24.50;62.30;;;;;;6100158;29;20080;-53
2023/06/11 07:08:55;;;;;;;0.50;0.45;;;24.50;64.30;;;;;;6100744;29;20055;-53
2023/06/11 07:11:58;;;;;;;0.40;0.40;;;24.50;64.50;;;;;;6100039;29;20095;-52
2023/06/11 07:15:00;;;;;;;0.52;0.40;;;24.40;64.20;;;;;;6100074;29;20571;-51
2023/06/11 07:18:01;;;;;;;0.30;0.30;;;24.40;64.30;;;;;;6099885;29;20048;-51
2023/06/11 07:21:03;;;;;;;0.30;0.30;;;24.50;64.30;;;;;;6099835;29;20604;-53
2023/06/11 07:24:07;;;;;;;0.50;0.50;;;24.50;64.30;;;;;;6099200;29;20044;-52
2023/06/11 07:27:10;;;;;;;0.35;0.35;;;24.30;64.00;;;;;;6099781;29;20504;-52
2023/06/11 07:30:12;;;;;;;0.38;0.35;;;24.60;64.40;;;;;;6099836;29;20040;-52
2023/06/11 07:33:16;;;;;;;0.40;0.40;;;24.60;64.10;;;;;;6099178;29;20119;-53
2023/06/11 07:36:21;;;;;;;0.40;0.40;;;24.40;64.10;;;;;;6099720;29;20055;-52
2023/06/11 07:39:22;;;;;;;0.60;0.40;;;24.40;64.10;;;;;;6100284;29;20584;-53
2023/06/11 07:42:24;;;;;;;0.40;0.40;;;24.50;64.30;;;;;;6099908;29;20047;-51
2023/06/11 07:45:27;;;;;;;0.40;0.40;;;24.50;64.20;;;;;;6099730;29;20186;-51
2023/06/11 07:48:30;;;;;;;0.32;0.32;;;24.60;64.40;;;;;;6099639;29;20040;-51
2023/06/11 07:51:32;;;;;;;0.52;0.30;;;24.50;64.10;;;;;;6098299;29;20044;-52
2023/06/11 07:54:39;;;;;;;0.30;0.30;;;24.50;64.20;;;;;;6099192;29;20207;-51
2023/06/11 07:57:41;;;;;;;0.38;0.30;;;24.30;64.10;;;;;;6099119;29;20063;-50
2023/06/11 08:00:42;;;;;;;0.30;0.30;;;24.70;64.30;;;;;;6099115;29;20047;-53
2023/06/11 08:03:44;;;;;;;0.40;0.30;;;24.30;63.90;;;;;;6098920;29;20044;-52
2023/06/11 08:06:46;;;;;;;0.38;0.38;;;24.60;64.10;;;;;;6099103;29;20044;-50
2023/06/11 08:09:47;;;;;;;0.40;0.40;;;24.30;63.80;;;;;;6099153;29;20042;-53
2023/06/11 08:12:48;;;;;;;0.50;0.50;;;24.70;64.10;;;;;;6098960;29;20076;-53
2023/06/11 08:15:50;;;;;;;0.38;0.38;;;24.20;63.70;;;;;;6099010;29;20100;-53
2023/06/11 08:18:51;;;;;;;0.30;0.30;;;24.50;63.90;;;;;;6102867;29;20051;-52
2023/06/11 08:21:56;;;;;;;0.38;0.38;;;24.60;63.80;;;;;;6102544;29;20044;-52
2023/06/11 08:24:58;;;;;;;0.40;0.40;;;24.60;63.70;;;;;;6102180;29;20052;-53
2023/06/11 08:27:59;;;;;;;0.50;0.40;;;24.70;63.80;;;;;;6102552;29;20059;-49
2023/06/11 08:31:01;;;;;;;0.40;0.40;;;24.70;63.80;;;;;;6102721;29;20044;-50
2023/06/11 08:34:03;;;;;;;0.30;0.30;;;24.30;63.60;;;;;;6102304;29;20044;-52
2023/06/11 08:37:08;;;;;;;0.40;0.40;;;24.60;63.70;;;;;;6102800;29;20512;-52
2023/06/11 08:40:11;;;;;;;0.43;0.40;;;24.60;63.60;;;;;;6102749;29;20040;-53
2023/06/11 08:43:13;;;;;;;0.40;0.40;;;24.70;63.50;;;;;;6102199;29;20115;-51
2023/06/11 08:46:15;;;;;;;0.30;0.30;;;24.40;63.40;;;;;;6102862;29;20424;-53
2023/06/11 08:49:20;;;;;;;0.57;0.32;;;24.50;63.40;;;;;;6102793;29;20036;-54
2023/06/11 08:52:25;;;;;;;0.30;0.30;;;24.40;63.10;;;;;;6102363;29;20048;-51
2023/06/11 08:55:28;;;;;;;0.40;0.30;;;24.70;63.30;;;;;;6102572;29;20067;-52
2023/06/11 08:58:32;;;;;;;0.30;0.30;;;24.90;63.40;;;;;;6101004;29;20051;-53
2023/06/11 09:01:34;;;;;;;0.32;0.32;;;24.80;63.30;;;;;;6102108;29;20072;-51
2023/06/11 09:04:37;;;;;;;0.32;0.30;;;24.90;63.20;;;;;;6099230;29;20044;-51
2023/06/11 09:07:48;;;;;;;0.22;0.22;;;24.90;63.20;;;;;;6099144;29;20044;-52
2023/06/11 09:10:50;;;;;;;0.50;0.40;;;24.90;63.10;;;;;;6101918;29;20040;-53
2023/06/11 09:13:55;;;;;;;0.40;0.40;;;24.60;62.90;;;;;;6101965;29;20051;-53
2023/06/11 09:16:57;;;;;;;0.40;0.40;;;24.60;62.80;;;;;;6101927;29;20040;-52
2023/06/11 09:20:02;;;;;;;0.35;0.35;;;24.90;62.90;;;;;;6102052;29;20044;-53
2023/06/11 09:23:04;;;;;;;0.30;0.30;;;24.90;62.80;;;;;;6101390;29;20044;-51
2023/06/11 09:26:06;;;;;;;0.40;0.40;;;24.70;62.80;;;;;;6102044;29;20411;-52
2023/06/11 09:29:11;;;;;;;0.40;0.38;;;24.80;62.70;;;;;;6100476;29;20122;-53
2023/06/11 09:32:14;;;;;;;0.30;0.30;;;25.00;62.70;;;;;;6101381;29;20052;-51
2023/06/11 09:35:42;;;;;;;0.30;0.30;;;24.90;62.50;;;;;;6101795;29;20062;-51
2023/06/11 09:38:47;;;;;;;0.32;0.32;;;25.10;62.50;;;;;;6101802;29;20063;-52
2023/06/11 09:41:50;;;;;;;0.45;0.38;;;25.00;62.20;;;;;;6100275;29;20040;-53
2023/06/11 09:44:56;;;;;;;0.40;0.40;;;24.90;62.10;;;;;;6101881;29;20131;-49
2023/06/11 09:47:58;;;;;;;0.70;0.40;;;25.00;62.10;;;;;;6100078;29;20044;-51
2023/06/11 09:51:02;;;;;;;0.55;0.40;;;24.90;62.00;;;;;;6100553;29;20096;-53
2023/06/11 09:54:08;;;;;;;0.30;0.30;;;24.90;61.80;;;;;;6100900;29;20072;-49
2023/06/11 09:57:11;;;;;;;0.30;0.30;;;25.10;61.80;;;;;;6101046;29;20044;-53
2023/06/11 10:00:15;;;;;;;0.45;0.30;;;24.90;61.60;;;;;;6101155;29;20040;-52
2023/06/11 10:03:17;;;;;;;0.85;0.30;;;25.00;61.60;;;;;;6100912;29;20048;-52
2023/06/11 10:06:24;;;;;;;0.20;0.20;;;25.10;61.60;;;;;;6101125;29;20052;-51
2023/06/11 10:09:29;;;;;;;0.35;0.30;;;24.90;61.10;;;;;;6101293;29;20040;-53
2023/06/11 10:12:33;;;;;;;0.30;0.30;;;25.10;61.10;;;;;;6100810;29;20266;-52
2023/06/11 10:15:37;;;;;;;0.40;0.38;;;25.10;61.00;;;;;;6101097;29;20047;-50
2023/06/11 10:18:39;;;;;;;0.32;0.22;;;25.10;60.90;;;;;;6100934;29;20040;-52
2023/06/11 10:21:42;;;;;;;0.30;0.30;;;25.10;60.90;;;;;;6100951;29;20510;-52
2023/06/11 10:24:59;;;;;;;0.32;0.32;;;25.00;60.60;;;;;;6100735;29;20044;-51
2023/06/11 10:28:00;;;;;;;0.50;0.40;;;24.70;60.30;;;;;;6100575;29;20055;-53
2023/06/11 10:31:02;;;;;;;0.40;0.40;;;25.20;61.40;;;;;;6100484;29;21146;-53
2023/06/11 10:34:04;;;;;;;0.30;0.30;;;24.70;60.30;;;;;;6100180;29;20073;-52
2023/06/11 10:37:07;;;;;;;0.47;0.20;;;25.20;60.30;;;;;;6100689;29;20095;-54
2023/06/11 10:40:10;;;;;;;0.35;0.30;;;24.90;60.70;;;;;;6099013;29;20096;-51
2023/06/11 10:43:15;;;;;;;0.40;0.25;;;24.80;59.80;;;;;;6100051;29;20067;-54
2023/06/11 10:46:18;;;;;;;0.28;0.28;;;25.30;60.00;;;;;;6099294;29;20063;-52
2023/06/11 10:49:22;;;;;;;0.45;0.38;;;24.90;59.50;;;;;;6100498;29;20261;-53
2023/06/11 10:52:24;;;;;;;0.55;0.22;;;24.90;59.50;;;;;;6083103;29;20044;-53
2023/06/11 10:55:29;;;;;;;0.20;0.20;;;25.30;59.70;;;;;;6100224;29;20091;-51
2023/06/11 10:58:32;;;;;;;0.30;0.30;;;25.30;59.50;;;;;;6099875;29;20044;-54
2023/06/11 11:01:34;;;;;;;0.50;0.30;;;25.40;59.40;;;;;;6100044;29;20046;-53
2023/06/11 11:04:35;;;;;;;0.25;0.20;;;24.90;59.10;;;;;;6099804;29;20330;-53
2023/06/11 11:07:38;;;;;;;0.45;0.30;;;25.40;59.30;;;;;;6100095;29;20492;-53
2023/06/11 11:10:40;;;;;;;0.40;0.30;;;25.30;59.10;;;;;;6098601;29;20040;-54
2023/06/11 11:13:42;;;;;;;0.40;0.30;;;25.30;59.10;;;;;;6099648;29;20044;-54
2023/06/11 11:16:47;;;;;;;0.32;0.32;;;25.00;58.90;;;;;;6099938;29;20107;-54
2023/06/11 11:19:48;;;;;;;0.30;0.20;;;25.30;58.80;;;;;;6098592;29;20415;-54
2023/06/11 11:22:52;;;;;;;0.20;0.20;;;25.40;59.10;;;;;;6097822;29;20044;-54
2023/06/11 11:25:55;;;;;;;0.55;0.30;;;25.40;58.80;;;;;;6098387;29;20047;-52
2023/06/11 11:28:58;;;;;;;0.47;0.28;;;25.30;58.80;;;;;;6099562;29;20423;-53
2023/06/11 11:32:00;;;;;;;0.50;0.40;;;25.30;58.80;;;;;;6098247;29;20044;-51
2023/06/11 11:35:04;;;;;;;0.47;0.40;;;25.50;58.80;;;;;;6099666;29;20141;-52
2023/06/11 11:38:05;;;;;;;0.20;0.20;;;25.50;58.60;;;;;;6099359;29;20040;-53
2023/06/11 11:41:09;;;;;;;0.55;0.40;;;25.40;58.60;;;;;;6099760;29;20040;-54
2023/06/11 11:44:13;;;;;;;0.30;0.30;;;25.40;58.50;;;;;;6098909;29;20040;-54
2023/06/11 11:47:18;;;;;;;0.30;0.30;;;25.50;58.50;;;;;;6098174;29;20079;-54
2023/06/11 11:50:22;;;;;;;0.40;0.30;;;25.30;58.20;;;;;;6099394;29;20071;-54
2023/06/11 11:53:29;;;;;;;0.43;0.30;;;25.40;58.30;;;;;;6098346;29;20491;-54
2023/06/11 11:56:33;;;;;;;0.30;0.30;;;25.40;58.30;;;;;;6098870;29;20052;-53
2023/06/11 11:59:37;;;;;;;0.60;0.30;;;25.20;58.10;;;;;;6097671;29;20064;-53
2023/06/11 12:02:43;;;;;;;0.85;0.40;;;25.30;58.10;;;;;;6097178;29;20420;-54
2023/06/11 12:05:55;;;;;;;0.50;0.30;;;25.10;58.00;;;;;;6097580;29;20047;-51
2023/06/11 12:08:57;;;;;;;0.30;0.30;;;25.20;57.90;;;;;;6097870;29;20515;-53
2023/06/11 12:11:59;;;;;;;0.30;0.30;;;25.40;58.20;;;;;;6098248;29;20067;-54
2023/06/11 12:15:07;;;;;;;0.40;0.30;;;25.30;58.00;;;;;;6098953;29;20047;-50
2023/06/11 12:18:08;;;;;;;0.30;0.30;;;25.50;58.00;;;;;;6096170;29;20052;-53
2023/06/11 12:21:10;;;;;;;0.20;0.20;;;25.20;57.80;;;;;;6096634;29;20084;-51
2023/06/11 12:24:14;;;;;;;0.40;0.38;;;25.40;58.50;;;;;;6096913;29;20491;-53
2023/06/11 12:27:17;;;;;;;0.65;0.40;;;25.30;57.60;;;;;;6098692;29;20531;-53
2023/06/11 12:30:19;;;;;;;0.25;0.20;;;25.50;57.90;;;;;;6098693;29;20044;-52
2023/06/11 12:33:26;;;;;;;0.35;0.32;;;25.30;57.60;;;;;;6097483;29;20051;-51
2023/06/11 12:36:27;;;;;;;0.30;0.30;;;25.50;57.80;;;;;;6097127;29;20040;-52
2023/06/11 12:39:29;;;;;;;0.55;0.40;;;25.20;57.40;;;;;;6097428;29;20044;-51
2023/06/11 12:42:37;;;;;;;0.45;0.40;;;25.20;57.40;;;;;;6098202;29;20447;-53
2023/06/11 12:45:38;;;;;;;0.35;0.20;;;25.50;57.30;;;;;;6097911;29;20096;-51
2023/06/11 12:48:41;;;;;;;0.30;0.30;;;25.50;57.40;;;;;;6096153;29;20107;-52
2023/06/11 12:51:45;;;;;;;0.32;0.30;;;25.40;57.00;;;;;;6097848;29;20424;-51
2023/06/11 12:54:47;;;;;;;0.50;0.20;;;25.40;57.00;;;;;;6091662;29;20044;-53
2023/06/11 12:57:49;;;;;;;0.63;0.40;;;25.40;57.00;;;;;;6096357;29;20044;-53
2023/06/11 13:00:51;;;;;;;0.20;0.20;;;25.40;56.90;;;;;;6097932;29;20052;-52
2023/06/11 13:03:52;;;;;;;0.20;0.20;;;25.40;56.80;;;;;;6100116;29;20127;-54
2023/06/11 13:06:54;;;;;;;0.30;0.30;;;25.70;57.00;;;;;;6101970;29;20040;-54
2023/06/11 13:09:56;;;;;;;0.30;0.30;;;25.40;55.90;;;;;;6101191;29;20448;-51
2023/06/11 13:12:58;;;;;;;0.35;0.30;;;25.40;56.70;;;;;;6101545;29;20040;-51
2023/06/11 13:15:59;;;;;;;0.68;0.43;;;25.50;56.60;;;;;;6099349;29;20063;-54
2023/06/11 13:19:02;;;;;;;0.40;0.20;;;25.50;56.70;;;;;;6101429;29;20047;-52
2023/06/11 13:22:09;;;;;;;0.28;0.28;;;25.50;56.60;;;;;;6101106;29;20075;-52
2023/06/11 13:25:10;;;;;;;0.20;0.20;;;25.60;56.60;;;;;;6100030;29;20040;-52
2023/06/11 13:28:13;;;;;;;0.20;0.20;;;25.50;56.50;;;;;;6099656;29;20048;-53
2023/06/11 13:31:14;;;;;;;0.52;0.20;;;25.50;56.40;;;;;;6099461;29;20353;-54
2023/06/11 13:34:16;;;;;;;0.30;0.30;;;25.30;56.30;;;;;;6100012;29;20050;-51
2023/06/11 13:37:19;;;;;;;0.50;0.22;;;25.30;56.20;;;;;;6099342;29;20036;-52
2023/06/11 13:40:20;;;;;;;0.20;0.20;;;25.70;56.40;;;;;;6097080;29;20036;-53
2023/06/11 13:43:24;;;;;;;0.30;0.30;;;25.50;56.40;;;;;;6098361;29;20175;-50
2023/06/11 13:46:25;;;;;;;0.30;0.30;;;25.50;55.10;;;;;;6098668;29;20412;-53
2023/06/11 13:49:27;;;;;;;0.70;0.70;;;25.40;56.20;;;;;;6099382;29;20047;-52
2023/06/11 13:52:30;;;;;;;0.30;0.30;;;25.50;56.20;;;;;;6098873;29;20040;-54
2023/06/11 13:55:33;;;;;;;0.30;0.30;;;25.00;56.00;;;;;;6099503;29;20036;-53
2023/06/11 13:58:35;;;;;;;0.30;0.30;;;25.50;56.30;;;;;;6099031;29;20075;-53
2023/06/11 14:01:36;;;;;;;0.40;0.32;;;25.40;56.20;;;;;;6099378;29;20397;-53
2023/06/11 14:04:38;;;;;;;0.32;0.20;;;25.30;56.20;;;;;;6098785;29;20044;-53
2023/06/11 14:07:41;;;;;;;0.40;0.35;;;25.50;56.30;;;;;;6099051;29;20067;-52
2023/06/11 14:10:42;;;;;;;0.30;0.30;;;25.50;56.10;;;;;;6095664;29;20048;-51
2023/06/11 14:13:44;;;;;;;0.22;0.20;;;25.20;56.00;;;;;;6098369;29;20044;-54
2023/06/11 14:16:46;;;;;;;0.50;0.22;;;25.20;55.90;;;;;;6098365;29;20040;-53
2023/06/11 14:19:48;;;;;;;0.68;0.30;;;25.50;56.10;;;;;;6097620;29;20495;-52
2023/06/11 14:22:49;;;;;;;0.40;0.40;;;25.50;56.10;;;;;;6098424;29;20586;-50
2023/06/11 14:25:51;;;;;;;0.17;0.15;;;25.50;56.10;;;;;;6099298;29;20040;-53
2023/06/11 14:28:53;;;;;;;0.60;0.60;;;25.50;55.80;;;;;;6098297;29;20048;-52
2023/06/11 14:31:59;;;;;;;0.30;0.30;;;25.50;56.00;;;;;;6098378;29;20040;-53
2023/06/11 14:35:00;;;;;;;0.30;0.22;;;25.10;55.60;;;;;;6095587;29;20046;-54
2023/06/11 14:38:02;;;;;;;0.52;0.30;;;25.30;55.80;;;;;;6097120;29;20593;-53
2023/06/11 14:41:05;;;;;;;0.30;0.20;;;25.40;55.90;;;;;;6097629;29;20503;-50
2023/06/11 14:44:07;;;;;;;0.30;0.30;;;25.30;55.70;;;;;;6095980;29;20342;-51
2023/06/11 14:47:09;;;;;;;0.47;0.30;;;25.10;55.50;;;;;;6097595;29;20123;-51
2023/06/11 14:50:12;;;;;;;0.45;0.38;;;25.50;56.00;;;;;;6097161;29;20416;-53
2023/06/11 14:53:14;;;;;;;0.22;0.22;;;25.50;55.70;;;;;;6098612;29;20115;-52
2023/06/11 14:56:16;;;;;;;0.50;0.40;;;25.50;55.70;;;;;;6098486;29;20044;-51
2023/06/11 14:59:18;;;;;;;0.30;0.30;;;25.40;55.60;;;;;;6098257;29;20121;-53
2023/06/11 15:02:19;;;;;;;0.55;0.30;;;25.50;55.60;;;;;;6097750;29;20043;-51
2023/06/11 15:05:21;;;;;;;0.50;0.32;;;25.50;55.50;;;;;;6097258;29;20582;-54
2023/06/11 15:08:22;;;;;;;0.43;0.30;;;25.50;55.50;;;;;;6096765;29;20365;-53
2023/06/11 15:11:24;;;;;;;0.20;0.20;;;25.40;55.40;;;;;;6097269;29;20041;-51
2023/06/11 15:14:26;;;;;;;0.32;0.30;;;25.20;55.20;;;;;;6096232;29;20048;-53
2023/06/11 15:17:29;;;;;;;0.30;0.30;;;25.60;55.30;;;;;;6097716;29;20040;-51
2023/06/11 15:20:31;;;;;;;0.30;0.30;;;25.50;55.10;;;;;;6097444;29;20503;-51
2023/06/11 15:23:34;;;;;;;0.20;0.20;;;25.50;55.00;;;;;;6096722;29;20036;-51
2023/06/11 15:26:36;;;;;;;0.22;0.22;;;25.40;55.00;;;;;;6094806;29;20504;-53
2023/06/11 15:29:39;;;;;;;0.20;0.20;;;25.50;55.70;;;;;;6098617;29;20040;-51
2023/06/11 15:32:41;;;;;;;0.40;0.30;;;25.70;55.10;;;;;;6099390;29;20047;-51
2023/06/11 15:35:42;;;;;;;0.40;0.40;;;25.50;55.00;;;;;;6098731;29;20258;-54
2023/06/11 15:38:44;;;;;;;0.30;0.30;;;25.40;55.00;;;;;;6098436;29;20586;-52
2023/06/11 15:41:45;;;;;;;0.47;0.47;;;25.30;54.80;;;;;;6098283;29;20048;-53
2023/06/11 15:44:48;;;;;;;0.50;0.40;;;25.20;54.90;;;;;;6097944;29;20127;-52
2023/06/11 15:47:51;;;;;;;0.30;0.30;;;25.60;55.00;;;;;;6094866;29;20055;-51
2023/06/11 15:50:53;;;;;;;0.30;0.30;;;25.50;55.10;;;;;;6097376;29;20084;-52
2023/06/11 15:53:54;;;;;;;0.30;0.30;;;25.50;55.00;;;;;;6098390;29;20040;-53
2023/06/11 15:56:56;;;;;;;0.40;0.40;;;25.60;55.20;;;;;;6099136;29;20036;-54
2023/06/11 15:59:58;;;;;;;0.40;0.40;;;25.40;55.10;;;;;;6098936;29;20048;-53
2023/06/11 16:02:59;;;;;;;0.57;0.50;;;25.50;55.40;;;;;;6098243;29;20423;-52
2023/06/11 16:06:01;;;;;;;0.47;0.45;;;25.60;55.80;;;;;;6098756;29;20095;-54
2023/06/11 16:09:03;;;;;;;0.32;0.32;;;25.60;56.00;;;;;;6098589;29;20041;-53
2023/06/11 16:12:05;;;;;;;0.65;0.52;;;25.10;55.80;;;;;;6098239;29;20040;-53
2023/06/11 16:15:07;;;;;;;0.30;0.30;;;25.30;56.10;;;;;;6098690;29;20044;-50
2023/06/11 16:18:09;;;;;;;0.30;0.30;;;25.30;56.30;;;;;;6099388;29;20092;-54
2023/06/11 16:21:11;;;;;;;0.68;0.40;;;25.50;56.80;;;;;;6098835;29;20040;-53
2023/06/11 16:24:13;;;;;;;0.47;0.38;;;25.70;56.90;;;;;;6098129;29;20048;-54
2023/06/11 16:27:14;;;;;;;0.40;0.40;;;25.70;57.20;;;;;;6097677;29;20040;-52
2023/06/11 16:30:16;;;;;;;0.47;0.45;;;25.40;57.10;;;;;;6098731;29;20492;-53
2023/06/11 16:33:18;;;;;;;0.50;0.50;;;25.60;57.40;;;;;;6098624;29;20056;-53
2023/06/11 16:36:19;;;;;;;0.40;0.30;;;25.80;57.60;;;;;;6098912;29;20047;-51
2023/06/11 16:39:22;;;;;;;0.60;0.40;;;25.70;57.60;;;;;;6100982;29;20055;-54
2023/06/11 16:42:29;;;;;;;0.60;0.50;;;25.70;57.60;;;;;;6101034;29;20047;-52
2023/06/11 16:45:31;;;;;;;0.30;0.30;;;25.80;57.70;;;;;;6100396;29;20036;-52
2023/06/11 16:48:33;;;;;;;0.52;0.50;;;25.80;57.60;;;;;;6101093;29;20044;-53
2023/06/11 16:51:34;;;;;;;0.40;0.40;;;25.90;57.70;;;;;;6098605;29;20491;-54
2023/06/11 16:54:36;;;;;;;0.45;0.45;;;26.10;57.90;;;;;;6101858;29;20044;-54
2023/06/11 16:57:40;;;;;;;0.38;0.35;;;26.10;57.80;;;;;;6102498;29;20091;-51